< < Back
Terminal Aerodrome Forecast


Current Version              Previous Versions:   1  2  3  4  5  6  7  8  9  

Terminal Aerodrome Forecast

576
FTUS44 KMOB 232322
TAFPNS
TAF
KPNS 232322Z 2400/2424 15012KT P6SM SCT050
     FM240300 11006KT P6SM FEW060 BKN250
     FM241200 10010KT P6SM BKN050
     FM241800 14015KT P6SM VCTS BKN020CB=

Latest METAR

370
SAUS70 KWBC 240500 RRE
MTRPNS
METAR KPNS 240453Z AUTO 12005KT 10SM CLR 24/22 A3017 RMK AO2 SLP216
T02440222


USA.gov is the U.S. government's official web portal to all federal, state and local government web resources and services.